Time;durP1;ratioP1;P1;durP2;ratioP2;P2;SDS_P1;SDS_P2;PMS_P1;PMS_P2;Temp;Humidity;BMP_temperature;BMP_pressure;BME280_temperature;BME280_humidity;BME280_pressure;Samples;Min_cycle;Max_cycle;Signal;HPM_P1;HPM_P2
2024/01/25 00:00:47;;;;;;;2.40;1.70;;;21.50;65.70;;;;;;4974687;28;20210;-80
2024/01/25 00:03:14;;;;;;;3.90;1.80;;;21.50;65.90;;;;;;4969031;28;20903;-81
2024/01/25 00:05:42;;;;;;;4.53;1.87;;;21.50;65.50;;;;;;4975773;28;20201;-80
2024/01/25 00:08:09;;;;;;;2.60;1.60;;;21.50;65.50;;;;;;4976261;28;20468;-82
2024/01/25 00:10:36;;;;;;;2.13;1.47;;;21.50;65.50;;;;;;4968637;28;20210;-82
2024/01/25 00:13:02;;;;;;;3.37;1.83;;;21.50;65.70;;;;;;4978344;28;20982;-81
2024/01/25 00:15:29;;;;;;;2.27;1.57;;;21.50;65.60;;;;;;4976736;28;20498;-80
2024/01/25 00:17:56;;;;;;;1.50;1.30;;;21.50;65.60;;;;;;4973648;28;20547;-80
2024/01/25 00:20:23;;;;;;;4.40;1.60;;;21.50;65.70;;;;;;4975242;28;22633;-81
2024/01/25 00:22:51;;;;;;;2.38;1.38;;;21.50;65.50;;;;;;4973910;28;20201;-81
2024/01/25 00:25:18;;;;;;;2.67;1.50;;;21.40;65.60;;;;;;4970132;28;20201;-82
2024/01/25 00:27:47;;;;;;;1.70;1.30;;;21.40;65.70;;;;;;4972245;28;20197;-82
2024/01/25 00:30:14;;;;;;;2.95;2.05;;;21.40;65.60;;;;;;4977409;28;20200;-80
2024/01/25 00:32:41;;;;;;;3.05;1.58;;;21.40;65.60;;;;;;4972422;28;20197;-81
2024/01/25 00:35:09;;;;;;;2.60;1.37;;;21.40;65.60;;;;;;4975239;28;20721;-81
2024/01/25 00:37:37;;;;;;;2.50;1.42;;;21.40;65.50;;;;;;4974057;28;20496;-80
2024/01/25 00:40:06;;;;;;;2.28;1.52;;;21.30;65.60;;;;;;4977433;28;20665;-81
2024/01/25 00:42:38;;;;;;;2.83;2.10;;;21.30;65.60;;;;;;4976119;28;20763;-81
2024/01/25 00:45:06;;;;;;;2.33;1.63;;;21.30;65.80;;;;;;4980781;28;20468;-80
2024/01/25 00:47:33;;;;;;;1.90;1.70;;;21.30;65.80;;;;;;4978164;28;20216;-81
2024/01/25 00:50:01;;;;;;;2.00;1.50;;;21.30;65.90;;;;;;4977631;28;20251;-82
2024/01/25 00:52:28;;;;;;;3.03;1.55;;;21.30;65.80;;;;;;4979038;28;20201;-83
2024/01/25 00:54:55;;;;;;;2.70;1.73;;;21.30;65.70;;;;;;4981576;28;20225;-81
2024/01/25 00:57:24;;;;;;;2.08;1.20;;;21.30;65.70;;;;;;4980070;28;20676;-81
2024/01/25 00:59:51;;;;;;;6.43;2.00;;;21.30;65.70;;;;;;4978402;28;20667;-81
2024/01/25 01:02:20;;;;;;;2.95;1.63;;;21.20;65.60;;;;;;4972644;28;20205;-82
2024/01/25 01:04:47;;;;;;;4.13;1.50;;;21.20;65.70;;;;;;4977543;28;20221;-81
2024/01/25 01:07:14;;;;;;;2.20;1.65;;;21.20;65.90;;;;;;4978350;28;20284;-81
2024/01/25 01:09:41;;;;;;;2.33;1.48;;;21.20;65.60;;;;;;4975023;28;20860;-80
2024/01/25 01:12:08;;;;;;;2.08;1.17;;;21.20;65.80;;;;;;4978214;28;20209;-80
2024/01/25 01:14:36;;;;;;;2.20;1.50;;;21.20;65.80;;;;;;4981085;28;21214;-80
2024/01/25 01:17:03;;;;;;;2.83;1.60;;;21.90;66.60;;;;;;4981782;28;20214;-81
2024/01/25 01:19:30;;;;;;;3.17;2.15;;;21.20;65.70;;;;;;4974694;28;20213;-80
2024/01/25 01:21:56;;;;;;;2.67;1.17;;;21.10;65.60;;;;;;4979424;28;20205;-81
2024/01/25 01:24:23;;;;;;;1.73;1.25;;;21.10;65.80;;;;;;4977182;28;20199;-79
2024/01/25 01:26:50;;;;;;;1.83;1.50;;;21.10;65.90;;;;;;4982511;28;20197;-81
2024/01/25 01:29:17;;;;;;;2.35;1.27;;;21.10;65.70;;;;;;4975324;28;20212;-80
2024/01/25 01:31:45;;;;;;;1.85;1.58;;;21.10;66.00;;;;;;4976419;28;20704;-80
2024/01/25 01:34:13;;;;;;;2.17;1.60;;;21.10;65.90;;;;;;4970453;28;20225;-79
2024/01/25 01:36:40;;;;;;;2.45;1.60;;;21.10;65.80;;;;;;4970725;28;21015;-80
2024/01/25 01:39:07;;;;;;;2.35;1.65;;;21.10;65.80;;;;;;4949723;28;20201;-81
2024/01/25 01:41:33;;;;;;;1.80;1.50;;;21.00;65.50;;;;;;4966207;28;20209;-80
2024/01/25 01:44:01;;;;;;;2.03;1.60;;;21.00;65.60;;;;;;4976354;28;20478;-81
2024/01/25 01:46:34;;;;;;;3.92;1.63;;;21.00;66.00;;;;;;4973375;28;20203;-81
2024/01/25 01:49:02;;;;;;;4.18;1.40;;;21.00;65.90;;;;;;4978382;28;20285;-80
2024/01/25 01:51:30;;;;;;;2.50;1.45;;;21.00;65.80;;;;;;4976281;28;20201;-81
2024/01/25 01:53:58;;;;;;;1.80;1.27;;;21.00;65.90;;;;;;4981022;28;20205;-81
2024/01/25 01:56:27;;;;;;;2.60;1.75;;;21.00;66.00;;;;;;4977878;28;20219;-82
2024/01/25 01:58:55;;;;;;;1.95;1.42;;;21.00;65.80;;;;;;4975281;28;20197;-80
2024/01/25 02:01:22;;;;;;;2.22;1.48;;;21.00;65.90;;;;;;4971646;28;20204;-82
2024/01/25 02:03:49;;;;;;;1.52;1.40;;;21.00;66.00;;;;;;4976332;28;20201;-81
2024/01/25 02:06:17;;;;;;;2.40;1.33;;;21.00;65.90;;;;;;4975193;28;20560;-82
2024/01/25 02:08:44;;;;;;;2.45;1.65;;;21.00;65.80;;;;;;4975448;28;21210;-81
2024/01/25 02:11:12;;;;;;;2.10;1.27;;;20.90;65.60;;;;;;4976540;28;20201;-81
2024/01/25 02:13:39;;;;;;;2.47;1.30;;;20.90;65.60;;;;;;4978151;28;20198;-82
2024/01/25 02:16:07;;;;;;;2.53;1.50;;;20.90;65.90;;;;;;4979863;28;20656;-83
2024/01/25 02:18:34;;;;;;;2.65;1.70;;;20.90;65.70;;;;;;4983832;28;20229;-83
2024/01/25 02:21:01;;;;;;;2.70;1.50;;;20.90;65.90;;;;;;4984031;28;20218;-83
2024/01/25 02:23:29;;;;;;;2.10;1.50;;;20.90;66.00;;;;;;4979724;28;20216;-82
2024/01/25 02:25:56;;;;;;;2.85;1.63;;;20.90;65.70;;;;;;4980778;28;20948;-82
2024/01/25 02:28:23;;;;;;;2.30;1.50;;;20.90;65.80;;;;;;4986863;28;20208;-82
2024/01/25 02:30:49;;;;;;;2.60;1.40;;;20.90;65.80;;;;;;4971305;28;20205;-83
2024/01/25 02:33:16;;;;;;;2.50;1.50;;;20.90;65.90;;;;;;4974253;28;21131;-82
2024/01/25 02:35:43;;;;;;;1.70;1.30;;;20.90;65.70;;;;;;4986273;28;20226;-82
2024/01/25 02:38:10;;;;;;;2.30;1.45;;;20.90;65.90;;;;;;4979777;28;21220;-83
2024/01/25 02:40:38;;;;;;;1.77;1.30;;;20.90;65.70;;;;;;4983803;28;20192;-83
2024/01/25 02:43:05;;;;;;;3.40;1.98;;;20.80;65.70;;;;;;4986187;28;20212;-82
2024/01/25 02:45:32;;;;;;;4.05;1.95;;;20.80;65.70;;;;;;4985015;28;21088;-84
2024/01/25 02:47:58;;;;;;;3.17;1.70;;;20.80;65.60;;;;;;4979120;28;20208;-81
2024/01/25 02:50:25;;;;;;;4.00;1.60;;;20.80;65.70;;;;;;4973615;28;20209;-80
2024/01/25 02:52:52;;;;;;;2.28;1.88;;;20.80;65.80;;;;;;4974184;28;20205;-81
2024/01/25 02:55:20;;;;;;;2.97;1.60;;;20.80;65.60;;;;;;4974768;28;20221;-82
2024/01/25 02:57:49;;;;;;;2.13;1.45;;;20.80;65.50;;;;;;4979019;28;20255;-80
2024/01/25 03:00:16;;;;;;;2.08;1.55;;;20.80;65.90;;;;;;4973060;28;20209;-82
2024/01/25 03:02:43;;;;;;;2.30;1.70;;;20.80;65.70;;;;;;4974775;28;20251;-81
2024/01/25 03:05:09;;;;;;;2.00;1.70;;;20.80;65.80;;;;;;4976249;28;20201;-81
2024/01/25 03:07:36;;;;;;;4.57;1.65;;;20.80;65.80;;;;;;4974346;28;20687;-81
2024/01/25 03:10:03;;;;;;;1.98;1.20;;;20.70;65.60;;;;;;4972273;28;20209;-81
2024/01/25 03:12:30;;;;;;;2.72;1.60;;;20.70;65.70;;;;;;4977017;28;20209;-83
2024/01/25 03:14:58;;;;;;;2.78;1.67;;;20.70;65.80;;;;;;4974783;28;20678;-81
2024/01/25 03:17:25;;;;;;;2.75;1.80;;;20.70;65.60;;;;;;4975962;28;20201;-83
2024/01/25 03:19:52;;;;;;;1.70;1.15;;;20.70;65.90;;;;;;4977129;28;20213;-80
2024/01/25 03:22:19;;;;;;;2.10;1.90;;;20.70;65.70;;;;;;4977498;28;20205;-82
2024/01/25 03:24:46;;;;;;;2.50;1.50;;;20.70;65.90;;;;;;4978109;28;20216;-81
2024/01/25 03:27:14;;;;;;;2.20;1.17;;;20.70;65.60;;;;;;4977642;28;20200;-81
2024/01/25 03:29:42;;;;;;;3.22;1.40;;;20.70;66.70;;;;;;4973915;28;20682;-81
2024/01/25 03:32:11;;;;;;;2.60;1.50;;;20.70;65.90;;;;;;4977681;28;20869;-81
2024/01/25 03:34:37;;;;;;;1.92;1.25;;;20.70;65.90;;;;;;4979603;28;20221;-81
2024/01/25 03:37:05;;;;;;;3.22;1.55;;;20.70;66.00;;;;;;4983741;28;20244;-82
2024/01/25 03:39:31;;;;;;;2.22;1.42;;;20.70;65.70;;;;;;4979830;28;20228;-81
2024/01/25 03:41:58;;;;;;;2.03;1.15;;;20.60;65.70;;;;;;4975015;28;20216;-82
2024/01/25 03:44:25;;;;;;;2.05;1.30;;;20.70;65.90;;;;;;4977883;28;20204;-79
2024/01/25 03:46:51;;;;;;;1.77;1.55;;;20.60;65.60;;;;;;4978596;28;20205;-82
2024/01/25 03:49:19;;;;;;;2.63;1.73;;;20.60;65.60;;;;;;4979711;28;20216;-81
2024/01/25 03:51:46;;;;;;;1.92;1.50;;;20.60;65.70;;;;;;4978226;28;20274;-82
2024/01/25 03:54:13;;;;;;;3.05;1.70;;;20.60;65.70;;;;;;4981261;28;20205;-80
2024/01/25 03:56:39;;;;;;;1.90;1.58;;;20.60;65.70;;;;;;4977138;28;20695;-82
2024/01/25 03:59:10;;;;;;;2.20;1.55;;;20.60;65.70;;;;;;4971678;28;20205;-81
2024/01/25 04:01:42;;;;;;;2.40;1.20;;;20.60;65.70;;;;;;4971563;28;20664;-82
2024/01/25 04:04:10;;;;;;;1.95;1.10;;;20.60;65.90;;;;;;4974574;28;20205;-82
2024/01/25 04:06:38;;;;;;;3.80;1.70;;;20.60;65.70;;;;;;4978622;28;20194;-81
2024/01/25 04:09:06;;;;;;;2.95;1.40;;;20.60;65.70;;;;;;4975285;28;20735;-80
2024/01/25 04:11:32;;;;;;;3.08;1.52;;;20.60;65.90;;;;;;4979081;28;20656;-82
2024/01/25 04:13:59;;;;;;;2.20;1.60;;;20.60;65.60;;;;;;4972478;28;20201;-81
2024/01/25 04:16:27;;;;;;;3.58;1.67;;;20.60;65.70;;;;;;4969317;28;20229;-82
2024/01/25 04:18:54;;;;;;;2.75;1.35;;;20.60;65.80;;;;;;4971450;28;20207;-81
2024/01/25 04:21:21;;;;;;;2.00;1.05;;;20.60;65.90;;;;;;4972760;28;20205;-81
2024/01/25 04:23:49;;;;;;;2.00;1.50;;;20.60;65.80;;;;;;4973625;28;20656;-82
2024/01/25 04:26:16;;;;;;;1.83;1.45;;;20.60;65.70;;;;;;4978808;28;20212;-82
2024/01/25 04:28:43;;;;;;;2.05;1.27;;;20.60;65.60;;;;;;4980562;28;21263;-83
2024/01/25 04:31:11;;;;;;;2.38;1.50;;;20.60;65.60;;;;;;4974634;28;20526;-81
2024/01/25 04:33:39;;;;;;;1.75;1.50;;;20.60;65.50;;;;;;4976087;28;20208;-82
2024/01/25 04:36:07;;;;;;;2.67;1.50;;;20.60;65.60;;;;;;4978992;28;20213;-82
2024/01/25 04:38:33;;;;;;;2.97;1.80;;;20.60;65.70;;;;;;4978636;28;20220;-82
2024/01/25 04:41:01;;;;;;;2.22;1.38;;;20.50;65.50;;;;;;4980360;28;20201;-82
2024/01/25 04:43:28;;;;;;;1.95;1.27;;;20.50;65.60;;;;;;4980005;28;20204;-81
2024/01/25 04:45:55;;;;;;;1.50;1.30;;;20.50;65.60;;;;;;4980607;28;20280;-82
2024/01/25 04:48:21;;;;;;;1.60;1.15;;;20.50;65.70;;;;;;4972715;28;20213;-82
2024/01/25 04:50:48;;;;;;;2.65;1.42;;;20.50;65.60;;;;;;4972972;28;21203;-83
2024/01/25 04:53:15;;;;;;;1.88;1.13;;;20.50;65.60;;;;;;4980915;28;20661;-83
2024/01/25 04:55:42;;;;;;;2.60;1.70;;;20.50;65.60;;;;;;4977335;28;20223;-83
2024/01/25 04:58:11;;;;;;;2.17;1.60;;;20.50;65.70;;;;;;4977617;28;20248;-82
2024/01/25 05:00:39;;;;;;;1.92;1.40;;;20.50;65.70;;;;;;4982604;28;20658;-84
2024/01/25 05:03:06;;;;;;;2.47;1.67;;;20.50;65.60;;;;;;4978778;28;20213;-83
2024/01/25 05:05:33;;;;;;;2.15;1.40;;;20.50;65.70;;;;;;4979474;28;20201;-82
2024/01/25 05:07:59;;;;;;;2.03;1.83;;;20.50;65.60;;;;;;4976648;28;21113;-83
2024/01/25 05:10:27;;;;;;;3.17;1.73;;;20.50;65.70;;;;;;4972289;28;20201;-83
2024/01/25 05:12:54;;;;;;;3.00;1.27;;;20.50;65.80;;;;;;4977713;28;20404;-82
2024/01/25 05:15:22;;;;;;;3.08;1.48;;;20.50;65.90;;;;;;4977240;28;20221;-82
2024/01/25 05:17:48;;;;;;;1.50;1.13;;;20.50;65.80;;;;;;4977271;28;20232;-82
2024/01/25 05:20:17;;;;;;;2.58;1.33;;;20.40;65.70;;;;;;4975554;28;20201;-83
2024/01/25 05:22:45;;;;;;;2.53;1.35;;;20.40;65.70;;;;;;4978229;28;20201;-81
2024/01/25 05:25:12;;;;;;;2.13;1.60;;;20.40;65.60;;;;;;4978579;28;20216;-81
2024/01/25 05:27:39;;;;;;;2.53;1.75;;;20.40;65.70;;;;;;4978695;28;20202;-82
2024/01/25 05:30:07;;;;;;;1.85;1.27;;;20.40;65.70;;;;;;4976733;28;20209;-83
2024/01/25 05:32:35;;;;;;;2.20;1.58;;;20.40;65.70;;;;;;4977023;28;20803;-82
2024/01/25 05:35:02;;;;;;;2.42;1.30;;;20.40;65.60;;;;;;4985832;28;20202;-82
2024/01/25 05:37:28;;;;;;;1.90;1.20;;;20.40;65.70;;;;;;4984068;28;20208;-81
2024/01/25 05:39:55;;;;;;;2.28;1.30;;;20.40;65.70;;;;;;4983348;28;20215;-82
2024/01/25 05:42:22;;;;;;;2.58;1.60;;;20.40;65.70;;;;;;4981478;28;20205;-81
2024/01/25 05:44:48;;;;;;;2.13;1.30;;;20.40;65.80;;;;;;4981125;28;20366;-80
2024/01/25 05:47:15;;;;;;;1.60;1.20;;;20.40;65.70;;;;;;4974696;28;21014;-81
2024/01/25 05:49:44;;;;;;;2.08;1.45;;;20.40;65.80;;;;;;4981753;28;20196;-81
2024/01/25 05:52:10;;;;;;;2.45;1.40;;;20.40;65.80;;;;;;4982899;28;20572;-82
2024/01/25 05:54:37;;;;;;;2.25;1.25;;;20.40;65.80;;;;;;4981740;28;20209;-82
2024/01/25 05:57:05;;;;;;;1.83;1.38;;;20.40;65.70;;;;;;4976827;28;20217;-83
2024/01/25 05:59:31;;;;;;;1.60;1.40;;;20.40;65.70;;;;;;4974641;28;20293;-82
2024/01/25 06:01:58;;;;;;;2.15;1.30;;;20.40;65.60;;;;;;4968519;28;20205;-82
2024/01/25 06:04:25;;;;;;;1.58;1.33;;;20.40;65.60;;;;;;4963345;28;21073;-83
2024/01/25 06:06:53;;;;;;;2.08;1.48;;;20.40;65.60;;;;;;4975283;28;20197;-82
2024/01/25 06:09:19;;;;;;;2.55;1.52;;;20.40;65.60;;;;;;4974106;28;20668;-81
2024/01/25 06:11:46;;;;;;;3.28;1.38;;;20.40;65.70;;;;;;4976004;28;20205;-80
2024/01/25 06:14:13;;;;;;;1.42;1.10;;;20.40;65.70;;;;;;4974710;28;20201;-81
2024/01/25 06:16:40;;;;;;;1.83;1.13;;;20.40;65.90;;;;;;4972713;28;20232;-81
2024/01/25 06:19:07;;;;;;;2.28;1.33;;;20.40;65.70;;;;;;4969807;28;20266;-81
2024/01/25 06:21:35;;;;;;;1.95;1.25;;;20.40;65.80;;;;;;4969363;28;20201;-83
2024/01/25 06:24:03;;;;;;;1.60;1.15;;;20.40;65.70;;;;;;4975961;28;20209;-82
2024/01/25 06:26:30;;;;;;;2.03;1.33;;;20.40;65.70;;;;;;4982490;28;20216;-80
2024/01/25 06:28:57;;;;;;;2.45;1.50;;;20.40;65.80;;;;;;4971336;28;20217;-81
2024/01/25 06:31:24;;;;;;;2.05;1.60;;;20.40;65.70;;;;;;4973704;28;21243;-81
2024/01/25 06:33:52;;;;;;;1.65;1.10;;;20.40;65.80;;;;;;4966371;28;20205;-81
2024/01/25 06:36:19;;;;;;;1.65;1.55;;;20.30;65.70;;;;;;4971610;28;20252;-81
2024/01/25 06:38:46;;;;;;;2.20;2.00;;;20.30;66.00;;;;;;4977393;28;20208;-82
2024/01/25 06:41:14;;;;;;;2.30;1.33;;;20.30;65.70;;;;;;4973096;28;20748;-81
2024/01/25 06:43:41;;;;;;;1.73;1.17;;;20.30;65.70;;;;;;4979054;28;20201;-82
2024/01/25 06:46:08;;;;;;;1.45;1.17;;;20.30;65.60;;;;;;4977099;28;20202;-82
2024/01/25 06:48:35;;;;;;;1.85;1.20;;;20.30;65.70;;;;;;4972250;28;20213;-81
2024/01/25 06:51:02;;;;;;;1.75;1.40;;;20.30;65.60;;;;;;4974752;28;20205;-82
2024/01/25 06:53:30;;;;;;;1.80;1.20;;;20.30;65.60;;;;;;4975146;28;20201;-83
2024/01/25 06:55:56;;;;;;;1.85;1.45;;;20.30;65.50;;;;;;4977576;28;20246;-81
2024/01/25 06:58:24;;;;;;;2.30;1.33;;;20.30;65.60;;;;;;4973440;28;20205;-83
2024/01/25 07:00:52;;;;;;;1.50;1.25;;;20.30;65.40;;;;;;4973285;28;20568;-81
2024/01/25 07:03:19;;;;;;;1.38;1.00;;;20.30;65.40;;;;;;4971614;28;20205;-80
2024/01/25 07:05:46;;;;;;;2.92;1.52;;;20.30;65.50;;;;;;4975525;28;20549;-83
2024/01/25 07:08:13;;;;;;;1.98;1.35;;;20.30;65.70;;;;;;4974420;28;20208;-83
2024/01/25 07:10:40;;;;;;;1.30;1.10;;;20.30;65.70;;;;;;4975666;28;20197;-82
2024/01/25 07:13:07;;;;;;;2.40;1.20;;;20.30;65.40;;;;;;4975535;28;20661;-83
2024/01/25 07:15:35;;;;;;;1.75;1.15;;;20.30;65.60;;;;;;4971916;28;20197;-83
2024/01/25 07:18:02;;;;;;;1.60;1.08;;;20.30;65.50;;;;;;4970664;28;20213;-81
2024/01/25 07:20:28;;;;;;;1.70;1.13;;;20.30;65.40;;;;;;4970730;28;20201;-80
2024/01/25 07:22:55;;;;;;;2.05;1.50;;;20.30;65.40;;;;;;4968052;28;20220;-82
2024/01/25 07:25:22;;;;;;;1.60;1.23;;;20.30;65.50;;;;;;4979960;28;20220;-82
2024/01/25 07:27:50;;;;;;;1.65;1.17;;;20.30;65.40;;;;;;4977735;28;20201;-83
2024/01/25 07:30:17;;;;;;;1.75;1.20;;;20.20;65.40;;;;;;4973648;28;20228;-84
2024/01/25 07:32:46;;;;;;;3.25;1.80;;;20.20;65.20;;;;;;4978440;28;20559;-82
2024/01/25 07:35:12;;;;;;;1.80;1.15;;;20.20;65.70;;;;;;4980580;28;20197;-83
2024/01/25 07:37:40;;;;;;;1.88;1.35;;;20.20;65.90;;;;;;4976505;28;20217;-82
2024/01/25 07:40:08;;;;;;;2.03;1.25;;;20.20;65.80;;;;;;4978946;28;20719;-84
2024/01/25 07:42:34;;;;;;;1.98;1.50;;;20.20;66.00;;;;;;4975822;28;20208;-83
2024/01/25 07:45:01;;;;;;;2.42;1.30;;;20.20;66.00;;;;;;4978054;28;20278;-82
2024/01/25 07:47:28;;;;;;;1.90;1.50;;;20.20;66.10;;;;;;4977948;28;20700;-80
2024/01/25 07:49:56;;;;;;;2.60;1.50;;;20.20;66.10;;;;;;4978763;28;20205;-81
2024/01/25 07:52:23;;;;;;;1.70;1.30;;;20.30;66.40;;;;;;4977819;28;20209;-82
2024/01/25 07:54:50;;;;;;;2.47;1.50;;;20.30;66.50;;;;;;4979947;28;20231;-81
2024/01/25 07:57:16;;;;;;;3.53;1.20;;;20.30;66.70;;;;;;4973167;28;20221;-80
2024/01/25 07:59:43;;;;;;;3.83;1.83;;;20.40;66.70;;;;;;4974889;28;20202;-85
2024/01/25 08:02:10;;;;;;;3.20;2.00;;;20.30;65.30;;;;;;4970802;28;20680;-86
2024/01/25 08:04:37;;;;;;;2.97;1.48;;;20.30;66.00;;;;;;4980750;28;20208;-84
2024/01/25 08:07:05;;;;;;;22.50;5.65;;;20.30;66.10;;;;;;4975421;28;20668;-82
2024/01/25 08:09:31;;;;;;;16.13;5.35;;;20.30;61.70;;;;;;4974348;28;20205;-81
2024/01/25 08:11:58;;;;;;;12.45;5.57;;;20.10;59.70;;;;;;4976448;28;20576;-81
2024/01/25 08:14:25;;;;;;;17.52;6.60;;;20.10;59.20;;;;;;4973066;28;20201;-84
2024/01/25 08:16:52;;;;;;;10.02;4.28;;;20.00;59.00;;;;;;4975635;28;20237;-79
2024/01/25 08:19:18;;;;;;;11.88;4.82;;;19.90;59.40;;;;;;4973751;28;21861;-80
2024/01/25 08:21:46;;;;;;;11.65;4.47;;;19.90;59.60;;;;;;4974940;28;20224;-80
2024/01/25 08:24:14;;;;;;;11.27;3.55;;;19.90;60.70;;;;;;4974842;28;20205;-79
2024/01/25 08:26:41;;;;;;;11.48;4.25;;;20.00;61.50;;;;;;4976530;28;20197;-81
2024/01/25 08:29:09;;;;;;;14.35;3.30;;;20.10;61.40;;;;;;4975069;28;20964;-83
2024/01/25 08:31:36;;;;;;;9.98;3.38;;;20.20;62.30;;;;;;4974217;28;20624;-78
2024/01/25 08:34:02;;;;;;;9.13;3.53;;;20.20;61.80;;;;;;4975342;28;20206;-80
2024/01/25 08:36:29;;;;;;;7.85;2.90;;;20.20;61.90;;;;;;4971774;28;20229;-82
2024/01/25 08:38:56;;;;;;;8.52;4.70;;;20.20;62.10;;;;;;4977770;28;20733;-80
2024/01/25 08:41:24;;;;;;;6.78;3.10;;;20.30;62.90;;;;;;4974459;28;20201;-81
2024/01/25 08:43:51;;;;;;;7.63;3.20;;;20.40;63.10;;;;;;4982286;28;20207;-80
2024/01/25 08:46:17;;;;;;;8.13;3.28;;;20.40;63.20;;;;;;4984342;28;21840;-83
2024/01/25 08:48:44;;;;;;;6.45;2.47;;;20.40;63.60;;;;;;4975875;28;20197;-88
2024/01/25 08:51:11;;;;;;;7.32;3.05;;;20.40;63.90;;;;;;4971765;28;20201;-87
2024/01/25 08:53:38;;;;;;;9.43;3.78;;;20.50;64.40;;;;;;4979865;28;20209;-88
2024/01/25 08:56:05;;;;;;;6.30;3.00;;;20.50;64.80;;;;;;4976374;28;20208;-81
2024/01/25 08:58:33;;;;;;;17.17;6.35;;;20.50;65.60;;;;;;4974434;28;20240;-85
2024/01/25 09:01:00;;;;;;;8.43;3.45;;;20.60;65.90;;;;;;4971270;28;20209;-82
2024/01/25 09:03:27;;;;;;;7.53;3.35;;;20.60;66.20;;;;;;4975292;28;20205;-83
2024/01/25 09:05:54;;;;;;;7.05;3.45;;;20.60;66.80;;;;;;4974852;28;20205;-83
2024/01/25 09:08:20;;;;;;;8.80;3.20;;;20.60;67.40;;;;;;4976489;28;20205;-82
2024/01/25 09:10:47;;;;;;;6.72;2.95;;;20.60;67.10;;;;;;4978959;28;20201;-82
2024/01/25 09:13:15;;;;;;;8.05;3.30;;;20.60;67.70;;;;;;4981375;28;20201;-82
2024/01/25 09:15:46;;;;;;;5.47;2.38;;;20.70;67.50;;;;;;4980106;28;20205;-81
2024/01/25 09:18:13;;;;;;;3.00;2.15;;;20.70;67.70;;;;;;4975964;28;20256;-81
2024/01/25 09:20:40;;;;;;;6.40;2.30;;;20.70;68.70;;;;;;4981092;28;20670;-80
2024/01/25 09:23:07;;;;;;;4.57;2.38;;;20.70;68.10;;;;;;4980869;28;20211;-80
2024/01/25 09:25:34;;;;;;;5.35;2.75;;;20.70;68.70;;;;;;4977342;28;20236;-82
2024/01/25 09:28:04;;;;;;;6.55;2.10;;;20.80;68.40;;;;;;4984538;28;20198;-81
2024/01/25 09:30:30;;;;;;;3.97;2.33;;;20.80;69.90;;;;;;4983198;28;20221;-80
2024/01/25 09:32:59;;;;;;;6.68;3.00;;;20.80;69.40;;;;;;4987158;28;20216;-82
2024/01/25 09:35:25;;;;;;;4.22;2.13;;;20.80;69.30;;;;;;4986618;28;20213;-80
2024/01/25 09:37:53;;;;;;;4.65;2.17;;;20.80;69.00;;;;;;4979120;28;20236;-79
2024/01/25 09:40:20;;;;;;;4.65;2.78;;;20.80;68.90;;;;;;4987033;28;20202;-85
2024/01/25 09:42:47;;;;;;;5.30;2.60;;;20.80;70.50;;;;;;4983882;28;20204;-85
2024/01/25 09:45:18;;;;;;;8.60;3.10;;;20.80;69.90;;;;;;4983373;28;20692;-83
2024/01/25 09:47:45;;;;;;;6.85;2.72;;;20.90;69.40;;;;;;4983854;28;22308;-80
2024/01/25 09:50:14;;;;;;;7.85;3.25;;;20.90;69.40;;;;;;4985912;28;20212;-82
2024/01/25 09:52:42;;;;;;;4.60;2.40;;;20.90;70.20;;;;;;4977154;28;20215;-78
2024/01/25 09:55:13;;;;;;;5.82;2.88;;;20.90;69.90;;;;;;4985851;28;20205;-81
2024/01/25 09:57:42;;;;;;;8.38;2.97;;;20.90;69.60;;;;;;4975062;28;20214;-85
2024/01/25 10:00:11;;;;;;;8.18;3.03;;;20.90;70.50;;;;;;4979182;28;20211;-83
2024/01/25 10:02:38;;;;;;;3.78;2.00;;;20.90;70.70;;;;;;4977367;28;20206;-85
2024/01/25 10:05:06;;;;;;;11.10;2.90;;;20.90;70.30;;;;;;4980100;28;20209;-79
2024/01/25 10:07:38;;;;;;;2.80;1.98;;;20.90;70.90;;;;;;4984033;28;20233;-80
2024/01/25 10:10:06;;;;;;;7.55;2.80;;;21.00;72.10;;;;;;4980101;28;20299;-80
2024/01/25 10:12:33;;;;;;;5.50;2.03;;;21.00;72.00;;;;;;4978444;28;21126;-80
2024/01/25 10:15:00;;;;;;;7.25;3.08;;;21.00;71.00;;;;;;4977104;28;21190;-83
2024/01/25 10:17:28;;;;;;;5.35;2.50;;;21.00;70.70;;;;;;4977815;28;20224;-83
2024/01/25 10:19:55;;;;;;;5.13;2.05;;;21.00;71.00;;;;;;4978784;28;20212;-79
2024/01/25 10:22:22;;;;;;;3.15;2.00;;;21.00;71.40;;;;;;4978818;28;20228;-81
2024/01/25 10:24:50;;;;;;;4.57;2.17;;;21.00;72.50;;;;;;4979921;28;20295;-82
2024/01/25 10:27:18;;;;;;;7.97;2.83;;;21.00;72.50;;;;;;4982463;28;20880;-82
2024/01/25 10:29:44;;;;;;;5.53;2.50;;;21.10;72.80;;;;;;4982244;28;20549;-84
2024/01/25 10:32:12;;;;;;;3.25;2.10;;;21.10;73.20;;;;;;4979741;28;21257;-83
2024/01/25 10:34:38;;;;;;;17.88;5.15;;;21.10;76.20;;;;;;4980897;28;20215;-85
2024/01/25 10:37:07;;;;;;;9.52;4.90;;;21.10;70.20;;;;;;4985246;28;20229;-87
2024/01/25 10:39:35;;;;;;;20.63;7.65;;;20.90;65.80;;;;;;4982225;28;20288;-87
2024/01/25 10:42:03;;;;;;;21.90;8.80;;;20.80;64.00;;;;;;4980584;28;20201;-88
2024/01/25 10:44:30;;;;;;;14.15;6.25;;;20.70;63.60;;;;;;4982149;28;20232;-87
2024/01/25 10:46:57;;;;;;;19.45;7.25;;;20.60;62.20;;;;;;4980572;28;20640;-82
2024/01/25 10:49:25;;;;;;;22.92;7.65;;;20.50;61.80;;;;;;4975017;28;20205;-84
2024/01/25 10:51:53;;;;;;;15.18;5.93;;;20.50;62.20;;;;;;4981525;28;20213;-86
2024/01/25 10:54:20;;;;;;;15.77;5.45;;;20.50;63.80;;;;;;4983228;28;20639;-86
2024/01/25 10:56:48;;;;;;;14.50;5.40;;;20.60;64.20;;;;;;4983753;28;20200;-86
2024/01/25 10:59:17;;;;;;;12.15;6.00;;;20.70;64.50;;;;;;4978806;28;20204;-86
2024/01/25 11:01:45;;;;;;;12.23;4.47;;;20.70;64.60;;;;;;4983804;28;20211;-87
2024/01/25 11:04:17;;;;;;;9.93;5.10;;;20.70;64.90;;;;;;4987706;28;20670;-85
2024/01/25 11:06:45;;;;;;;10.20;4.07;;;20.80;65.40;;;;;;4984549;28;20204;-85
2024/01/25 11:09:18;;;;;;;8.27;3.95;;;20.90;65.70;;;;;;4987723;28;20194;-87
2024/01/25 11:11:47;;;;;;;13.45;4.18;;;20.90;65.90;;;;;;4986914;28;20689;-87
2024/01/25 11:14:16;;;;;;;9.23;4.00;;;20.90;66.10;;;;;;4984457;28;20204;-88
2024/01/25 11:16:46;;;;;;;13.00;4.13;;;21.00;66.30;;;;;;4983904;28;20201;-87
2024/01/25 11:19:18;;;;;;;14.40;4.32;;;21.00;66.50;;;;;;4988532;28;20220;-88
2024/01/25 11:21:46;;;;;;;13.05;4.25;;;21.10;66.70;;;;;;4988158;28;20204;-86
2024/01/25 11:24:14;;;;;;;11.43;4.18;;;21.10;66.80;;;;;;4979390;28;20205;-86
2024/01/25 11:26:41;;;;;;;8.13;3.70;;;21.20;66.90;;;;;;4986671;28;20577;-86
2024/01/25 11:29:08;;;;;;;7.93;4.27;;;21.20;66.90;;;;;;4985073;28;20274;-88
2024/01/25 11:31:36;;;;;;;8.18;3.45;;;21.30;67.00;;;;;;4980664;28;20456;-88
2024/01/25 11:34:03;;;;;;;8.30;3.30;;;21.30;67.20;;;;;;4989954;28;20235;-85
2024/01/25 11:36:30;;;;;;;7.75;3.17;;;21.30;67.30;;;;;;4987124;28;20457;-87
2024/01/25 11:38:57;;;;;;;8.13;4.00;;;21.40;67.40;;;;;;4987512;28;20228;-86
2024/01/25 11:41:24;;;;;;;9.17;4.33;;;21.40;67.50;;;;;;4986909;28;20566;-88
2024/01/25 11:43:52;;;;;;;6.63;2.93;;;21.40;67.40;;;;;;4989593;28;20567;-88
2024/01/25 11:46:19;;;;;;;7.17;3.60;;;21.50;67.60;;;;;;4985289;28;20464;-89
2024/01/25 11:48:47;;;;;;;7.60;2.77;;;21.50;67.60;;;;;;4988695;28;20475;-88
2024/01/25 11:51:14;;;;;;;6.30;3.00;;;21.60;67.60;;;;;;4987736;28;20462;-88
2024/01/25 11:53:41;;;;;;;5.10;2.70;;;21.60;67.60;;;;;;4990085;28;20460;-88
2024/01/25 11:56:16;;;;;;;10.50;3.27;;;21.60;67.70;;;;;;4984062;28;20461;-90
2024/01/25 11:58:56;;;;;;;8.20;3.60;;;21.70;67.70;;;;;;4986674;28;20475;-90
2024/01/25 12:01:23;;;;;;;5.60;2.90;;;21.70;68.40;;;;;;4986614;28;20882;-89
2024/01/25 12:03:52;;;;;;;5.60;2.78;;;21.70;67.60;;;;;;4985638;28;20471;-89
2024/01/25 12:06:19;;;;;;;7.30;3.67;;;21.80;67.60;;;;;;4988272;28;20201;-88
2024/01/25 12:08:48;;;;;;;5.37;2.60;;;21.80;67.60;;;;;;4982447;28;20480;-90
2024/01/25 12:11:15;;;;;;;5.10;3.07;;;21.80;67.50;;;;;;4976614;28;20472;-89
2024/01/25 12:13:43;;;;;;;6.77;3.30;;;21.80;67.50;;;;;;4985417;28;20460;-91
2024/01/25 12:16:11;;;;;;;7.40;3.40;;;21.90;67.60;;;;;;4988070;28;20472;-92
2024/01/25 12:18:39;;;;;;;8.33;2.97;;;21.90;67.50;;;;;;4984720;28;20495;-92
2024/01/25 12:21:07;;;;;;;8.43;3.47;;;21.90;67.30;;;;;;4983463;28;20460;-92
2024/01/25 12:23:36;;;;;;;6.47;3.33;;;21.90;67.30;;;;;;4989458;28;20456;-92
2024/01/25 12:26:03;;;;;;;4.40;2.43;;;21.90;67.30;;;;;;4990990;28;20977;-91
2024/01/25 12:28:31;;;;;;;5.90;3.10;;;21.90;67.30;;;;;;4985791;28;20899;-90
2024/01/25 12:30:59;;;;;;;7.00;4.00;;;21.70;67.00;;;;;;4977517;28;20487;-90
2024/01/25 12:33:26;;;;;;;6.47;3.27;;;22.00;67.30;;;;;;4985035;28;20460;-91
2024/01/25 12:35:53;;;;;;;4.23;2.50;;;22.00;67.10;;;;;;4988350;28;20467;-91
2024/01/25 12:38:21;;;;;;;5.33;2.40;;;22.00;67.10;;;;;;4983508;28;20484;-89
2024/01/25 12:40:49;;;;;;;5.37;2.90;;;22.00;67.10;;;;;;4982861;28;20468;-90
2024/01/25 12:43:16;;;;;;;4.80;2.60;;;22.10;67.50;;;;;;4989951;28;20460;-91
2024/01/25 12:45:44;;;;;;;3.90;2.20;;;22.20;67.50;;;;;;4987924;28;21055;-91